sensor_id;sensor_type;location;lat;lon;timestamp;P1;durP1;ratioP1;P2;durP2;ratioP2
72037;SDS011;59900;50.788;12.904;2023-12-20T00:01:28;6.57;;;3.10;;
72037;SDS011;59900;50.788;12.904;2023-12-20T00:03:53;6.60;;;2.67;;
72037;SDS011;59900;50.788;12.904;2023-12-20T00:06:19;6.40;;;3.07;;
72037;SDS011;59900;50.788;12.904;2023-12-20T00:08:44;6.27;;;3.10;;
72037;SDS011;59900;50.788;12.904;2023-12-20T00:11:09;8.00;;;2.97;;
72037;SDS011;59900;50.788;12.904;2023-12-20T00:13:35;6.13;;;3.00;;
72037;SDS011;59900;50.788;12.904;2023-12-20T00:16:00;6.23;;;3.00;;
72037;SDS011;59900;50.788;12.904;2023-12-20T00:18:25;6.60;;;3.08;;
72037;SDS011;59900;50.788;12.904;2023-12-20T00:20:51;6.27;;;3.17;;
72037;SDS011;59900;50.788;12.904;2023-12-20T00:23:16;7.47;;;3.10;;
72037;SDS011;59900;50.788;12.904;2023-12-20T00:25:41;6.00;;;2.93;;
72037;SDS011;59900;50.788;12.904;2023-12-20T00:28:07;5.10;;;2.50;;
72037;SDS011;59900;50.788;12.904;2023-12-20T00:30:32;5.23;;;2.57;;
72037;SDS011;59900;50.788;12.904;2023-12-20T00:32:57;6.20;;;2.90;;
72037;SDS011;59900;50.788;12.904;2023-12-20T00:35:23;5.33;;;2.53;;
72037;SDS011;59900;50.788;12.904;2023-12-20T00:37:48;6.17;;;2.97;;
72037;SDS011;59900;50.788;12.904;2023-12-20T00:40:13;5.77;;;2.50;;
72037;SDS011;59900;50.788;12.904;2023-12-20T00:42:38;5.47;;;2.57;;
72037;SDS011;59900;50.788;12.904;2023-12-20T00:45:04;5.13;;;2.37;;
72037;SDS011;59900;50.788;12.904;2023-12-20T00:47:30;5.93;;;2.38;;
72037;SDS011;59900;50.788;12.904;2023-12-20T00:49:56;6.37;;;2.97;;
72037;SDS011;59900;50.788;12.904;2023-12-20T00:52:22;5.97;;;2.42;;
72037;SDS011;59900;50.788;12.904;2023-12-20T00:54:47;6.80;;;2.57;;
72037;SDS011;59900;50.788;12.904;2023-12-20T00:57:13;4.63;;;2.22;;
72037;SDS011;59900;50.788;12.904;2023-12-20T00:59:38;5.70;;;2.37;;
72037;SDS011;59900;50.788;12.904;2023-12-20T01:02:04;5.33;;;2.60;;
72037;SDS011;59900;50.788;12.904;2023-12-20T01:04:29;4.27;;;2.17;;
72037;SDS011;59900;50.788;12.904;2023-12-20T01:06:54;4.23;;;2.00;;
72037;SDS011;59900;50.788;12.904;2023-12-20T01:09:19;4.63;;;2.10;;
72037;SDS011;59900;50.788;12.904;2023-12-20T01:11:48;4.18;;;1.92;;
72037;SDS011;59900;50.788;12.904;2023-12-20T01:14:13;4.40;;;2.63;;
72037;SDS011;59900;50.788;12.904;2023-12-20T01:16:39;6.23;;;2.20;;
72037;SDS011;59900;50.788;12.904;2023-12-20T01:19:04;4.73;;;2.40;;
72037;SDS011;59900;50.788;12.904;2023-12-20T01:21:29;4.18;;;2.03;;
72037;SDS011;59900;50.788;12.904;2023-12-20T01:23:55;3.53;;;1.60;;
72037;SDS011;59900;50.788;12.904;2023-12-20T01:26:20;4.57;;;1.80;;
72037;SDS011;59900;50.788;12.904;2023-12-20T01:28:45;3.63;;;1.90;;
72037;SDS011;59900;50.788;12.904;2023-12-20T01:31:10;4.40;;;2.17;;
72037;SDS011;59900;50.788;12.904;2023-12-20T01:33:36;3.83;;;2.17;;
72037;SDS011;59900;50.788;12.904;2023-12-20T01:36:01;3.87;;;1.93;;
72037;SDS011;59900;50.788;12.904;2023-12-20T01:38:27;3.70;;;1.55;;
72037;SDS011;59900;50.788;12.904;2023-12-20T01:40:52;3.57;;;1.60;;
72037;SDS011;59900;50.788;12.904;2023-12-20T01:43:17;3.13;;;1.77;;
72037;SDS011;59900;50.788;12.904;2023-12-20T01:45:42;4.03;;;1.90;;
72037;SDS011;59900;50.788;12.904;2023-12-20T01:48:08;3.17;;;1.47;;
72037;SDS011;59900;50.788;12.904;2023-12-20T01:50:35;3.05;;;1.60;;
72037;SDS011;59900;50.788;12.904;2023-12-20T01:53:02;3.75;;;1.90;;
72037;SDS011;59900;50.788;12.904;2023-12-20T01:55:29;3.40;;;1.63;;
72037;SDS011;59900;50.788;12.904;2023-12-20T01:57:56;3.40;;;1.90;;
72037;SDS011;59900;50.788;12.904;2023-12-20T02:00:23;3.17;;;1.55;;
72037;SDS011;59900;50.788;12.904;2023-12-20T02:02:51;2.58;;;1.40;;
72037;SDS011;59900;50.788;12.904;2023-12-20T02:05:18;2.95;;;1.65;;
72037;SDS011;59900;50.788;12.904;2023-12-20T02:07:43;3.70;;;1.73;;
72037;SDS011;59900;50.788;12.904;2023-12-20T02:10:09;3.10;;;1.80;;
72037;SDS011;59900;50.788;12.904;2023-12-20T02:12:34;3.10;;;1.80;;
72037;SDS011;59900;50.788;12.904;2023-12-20T02:14:59;2.77;;;1.47;;
72037;SDS011;59900;50.788;12.904;2023-12-20T02:17:25;3.10;;;1.73;;
72037;SDS011;59900;50.788;12.904;2023-12-20T02:19:50;2.40;;;1.38;;
72037;SDS011;59900;50.788;12.904;2023-12-20T02:22:16;2.77;;;1.60;;
72037;SDS011;59900;50.788;12.904;2023-12-20T02:24:41;2.87;;;1.80;;
72037;SDS011;59900;50.788;12.904;2023-12-20T02:27:06;2.33;;;1.30;;
72037;SDS011;59900;50.788;12.904;2023-12-20T02:29:33;2.70;;;1.30;;
72037;SDS011;59900;50.788;12.904;2023-12-20T02:31:59;2.67;;;1.30;;
72037;SDS011;59900;50.788;12.904;2023-12-20T02:34:24;2.23;;;1.20;;
72037;SDS011;59900;50.788;12.904;2023-12-20T02:36:49;2.50;;;1.40;;
72037;SDS011;59900;50.788;12.904;2023-12-20T02:39:14;3.07;;;1.63;;
72037;SDS011;59900;50.788;12.904;2023-12-20T02:41:40;2.83;;;1.43;;
72037;SDS011;59900;50.788;12.904;2023-12-20T02:44:05;3.53;;;1.30;;
72037;SDS011;59900;50.788;12.904;2023-12-20T02:46:31;2.07;;;1.30;;
72037;SDS011;59900;50.788;12.904;2023-12-20T02:48:56;2.80;;;1.80;;
72037;SDS011;59900;50.788;12.904;2023-12-20T02:51:21;2.30;;;1.30;;
72037;SDS011;59900;50.788;12.904;2023-12-20T02:53:47;2.17;;;1.10;;
72037;SDS011;59900;50.788;12.904;2023-12-20T02:56:12;2.57;;;1.60;;
72037;SDS011;59900;50.788;12.904;2023-12-20T02:58:38;2.53;;;1.50;;
72037;SDS011;59900;50.788;12.904;2023-12-20T03:01:03;2.53;;;1.30;;
72037;SDS011;59900;50.788;12.904;2023-12-20T03:03:29;3.30;;;1.73;;
72037;SDS011;59900;50.788;12.904;2023-12-20T03:05:54;3.17;;;1.40;;
72037;SDS011;59900;50.788;12.904;2023-12-20T03:08:19;3.57;;;2.23;;
72037;SDS011;59900;50.788;12.904;2023-12-20T03:10:44;2.80;;;1.90;;
72037;SDS011;59900;50.788;12.904;2023-12-20T03:13:10;2.60;;;1.20;;
72037;SDS011;59900;50.788;12.904;2023-12-20T03:15:35;2.60;;;1.43;;
72037;SDS011;59900;50.788;12.904;2023-12-20T03:18:00;4.70;;;1.50;;
72037;SDS011;59900;50.788;12.904;2023-12-20T03:20:26;2.33;;;1.40;;
72037;SDS011;59900;50.788;12.904;2023-12-20T03:22:51;2.10;;;1.27;;
72037;SDS011;59900;50.788;12.904;2023-12-20T03:25:17;2.27;;;1.33;;
72037;SDS011;59900;50.788;12.904;2023-12-20T03:27:42;1.87;;;1.27;;
72037;SDS011;59900;50.788;12.904;2023-12-20T03:30:07;2.13;;;1.37;;
72037;SDS011;59900;50.788;12.904;2023-12-20T03:32:33;2.10;;;1.27;;
72037;SDS011;59900;50.788;12.904;2023-12-20T03:34:58;2.00;;;1.30;;
72037;SDS011;59900;50.788;12.904;2023-12-20T03:37:23;3.30;;;1.40;;
72037;SDS011;59900;50.788;12.904;2023-12-20T03:39:48;2.60;;;1.70;;
72037;SDS011;59900;50.788;12.904;2023-12-20T03:42:14;2.23;;;1.40;;
72037;SDS011;59900;50.788;12.904;2023-12-20T03:44:39;2.07;;;1.40;;
72037;SDS011;59900;50.788;12.904;2023-12-20T03:47:05;2.17;;;1.45;;
72037;SDS011;59900;50.788;12.904;2023-12-20T03:49:30;1.83;;;1.20;;
72037;SDS011;59900;50.788;12.904;2023-12-20T03:51:55;2.83;;;1.67;;
72037;SDS011;59900;50.788;12.904;2023-12-20T03:54:21;2.43;;;1.60;;
72037;SDS011;59900;50.788;12.904;2023-12-20T03:56:46;2.87;;;1.50;;
72037;SDS011;59900;50.788;12.904;2023-12-20T03:59:11;2.80;;;1.60;;
72037;SDS011;59900;50.788;12.904;2023-12-20T04:01:36;2.77;;;1.57;;
72037;SDS011;59900;50.788;12.904;2023-12-20T04:04:02;2.27;;;1.50;;
72037;SDS011;59900;50.788;12.904;2023-12-20T04:06:27;2.73;;;1.60;;
72037;SDS011;59900;50.788;12.904;2023-12-20T04:08:53;2.03;;;1.43;;
72037;SDS011;59900;50.788;12.904;2023-12-20T04:11:18;3.13;;;1.67;;
72037;SDS011;59900;50.788;12.904;2023-12-20T04:13:43;2.60;;;1.33;;
72037;SDS011;59900;50.788;12.904;2023-12-20T04:16:08;2.40;;;1.50;;
72037;SDS011;59900;50.788;12.904;2023-12-20T04:18:34;2.47;;;1.53;;
72037;SDS011;59900;50.788;12.904;2023-12-20T04:20:59;2.63;;;1.50;;
72037;SDS011;59900;50.788;12.904;2023-12-20T04:23:24;2.47;;;1.67;;
72037;SDS011;59900;50.788;12.904;2023-12-20T04:25:49;2.43;;;1.67;;
72037;SDS011;59900;50.788;12.904;2023-12-20T04:28:15;2.77;;;1.57;;
72037;SDS011;59900;50.788;12.904;2023-12-20T04:30:40;3.17;;;1.60;;
72037;SDS011;59900;50.788;12.904;2023-12-20T04:33:06;2.33;;;1.70;;
72037;SDS011;59900;50.788;12.904;2023-12-20T04:35:31;2.40;;;1.40;;
72037;SDS011;59900;50.788;12.904;2023-12-20T04:37:56;2.97;;;1.50;;
72037;SDS011;59900;50.788;12.904;2023-12-20T04:40:21;1.97;;;1.07;;
72037;SDS011;59900;50.788;12.904;2023-12-20T04:42:47;3.90;;;1.40;;
72037;SDS011;59900;50.788;12.904;2023-12-20T04:45:12;2.17;;;1.40;;
72037;SDS011;59900;50.788;12.904;2023-12-20T04:47:38;2.80;;;1.42;;
72037;SDS011;59900;50.788;12.904;2023-12-20T04:50:04;2.40;;;1.60;;
72037;SDS011;59900;50.788;12.904;2023-12-20T04:52:30;2.97;;;1.55;;
72037;SDS011;59900;50.788;12.904;2023-12-20T04:54:55;2.10;;;1.40;;
72037;SDS011;59900;50.788;12.904;2023-12-20T04:57:21;2.67;;;1.30;;
72037;SDS011;59900;50.788;12.904;2023-12-20T04:59:46;1.98;;;1.38;;
72037;SDS011;59900;50.788;12.904;2023-12-20T05:02:12;2.30;;;1.37;;
72037;SDS011;59900;50.788;12.904;2023-12-20T05:04:37;2.27;;;1.40;;
72037;SDS011;59900;50.788;12.904;2023-12-20T05:07:02;2.47;;;1.57;;
72037;SDS011;59900;50.788;12.904;2023-12-20T05:09:29;2.45;;;1.33;;
72037;SDS011;59900;50.788;12.904;2023-12-20T05:11:55;2.37;;;1.33;;
72037;SDS011;59900;50.788;12.904;2023-12-20T05:14:20;2.30;;;1.40;;
72037;SDS011;59900;50.788;12.904;2023-12-20T05:16:45;2.43;;;1.30;;
72037;SDS011;59900;50.788;12.904;2023-12-20T05:19:11;2.30;;;1.50;;
72037;SDS011;59900;50.788;12.904;2023-12-20T05:21:36;2.20;;;1.50;;
72037;SDS011;59900;50.788;12.904;2023-12-20T05:24:01;2.47;;;1.50;;
72037;SDS011;59900;50.788;12.904;2023-12-20T05:26:26;2.03;;;1.40;;
72037;SDS011;59900;50.788;12.904;2023-12-20T05:28:52;2.47;;;1.53;;
72037;SDS011;59900;50.788;12.904;2023-12-20T05:31:17;2.50;;;1.25;;
72037;SDS011;59900;50.788;12.904;2023-12-20T05:33:42;2.53;;;1.13;;
72037;SDS011;59900;50.788;12.904;2023-12-20T05:36:08;2.23;;;1.17;;
72037;SDS011;59900;50.788;12.904;2023-12-20T05:38:36;2.40;;;1.70;;
72037;SDS011;59900;50.788;12.904;2023-12-20T05:41:01;2.53;;;1.50;;
72037;SDS011;59900;50.788;12.904;2023-12-20T05:43:26;3.20;;;1.80;;
72037;SDS011;59900;50.788;12.904;2023-12-20T05:45:52;3.37;;;1.87;;
72037;SDS011;59900;50.788;12.904;2023-12-20T05:48:17;6.00;;;1.73;;
72037;SDS011;59900;50.788;12.904;2023-12-20T05:50:42;2.83;;;1.43;;
72037;SDS011;59900;50.788;12.904;2023-12-20T05:53:07;2.93;;;1.47;;
72037;SDS011;59900;50.788;12.904;2023-12-20T05:55:33;2.57;;;1.50;;
72037;SDS011;59900;50.788;12.904;2023-12-20T05:57:58;3.10;;;1.90;;
72037;SDS011;59900;50.788;12.904;2023-12-20T06:00:23;2.93;;;1.70;;
72037;SDS011;59900;50.788;12.904;2023-12-20T06:02:48;2.93;;;1.70;;
72037;SDS011;59900;50.788;12.904;2023-12-20T06:05:14;3.33;;;1.80;;
72037;SDS011;59900;50.788;12.904;2023-12-20T06:07:39;3.70;;;1.93;;
72037;SDS011;59900;50.788;12.904;2023-12-20T06:10:04;2.97;;;1.80;;
72037;SDS011;59900;50.788;12.904;2023-12-20T06:12:31;4.97;;;1.50;;
72037;SDS011;59900;50.788;12.904;2023-12-20T06:14:58;3.83;;;1.93;;
72037;SDS011;59900;50.788;12.904;2023-12-20T06:17:23;3.87;;;2.00;;
72037;SDS011;59900;50.788;12.904;2023-12-20T06:19:48;2.97;;;1.50;;
72037;SDS011;59900;50.788;12.904;2023-12-20T06:22:14;3.90;;;2.00;;
72037;SDS011;59900;50.788;12.904;2023-12-20T06:24:40;3.30;;;1.90;;
72037;SDS011;59900;50.788;12.904;2023-12-20T06:27:06;3.03;;;1.67;;
72037;SDS011;59900;50.788;12.904;2023-12-20T06:29:31;4.07;;;2.00;;
72037;SDS011;59900;50.788;12.904;2023-12-20T06:31:56;3.80;;;2.10;;
72037;SDS011;59900;50.788;12.904;2023-12-20T06:34:22;2.90;;;1.57;;
72037;SDS011;59900;50.788;12.904;2023-12-20T06:36:47;3.13;;;1.60;;
72037;SDS011;59900;50.788;12.904;2023-12-20T06:39:12;3.17;;;1.67;;
72037;SDS011;59900;50.788;12.904;2023-12-20T06:41:38;3.40;;;1.70;;
72037;SDS011;59900;50.788;12.904;2023-12-20T06:44:04;4.30;;;1.88;;
72037;SDS011;59900;50.788;12.904;2023-12-20T06:46:30;5.27;;;1.63;;
72037;SDS011;59900;50.788;12.904;2023-12-20T06:48:55;4.30;;;2.10;;
72037;SDS011;59900;50.788;12.904;2023-12-20T06:51:20;4.03;;;2.20;;
72037;SDS011;59900;50.788;12.904;2023-12-20T06:53:45;4.97;;;2.33;;
72037;SDS011;59900;50.788;12.904;2023-12-20T06:56:11;4.45;;;2.20;;
72037;SDS011;59900;50.788;12.904;2023-12-20T06:58:37;3.87;;;2.10;;
72037;SDS011;59900;50.788;12.904;2023-12-20T07:01:03;6.03;;;2.30;;
72037;SDS011;59900;50.788;12.904;2023-12-20T07:03:29;3.55;;;1.90;;
72037;SDS011;59900;50.788;12.904;2023-12-20T07:05:54;5.73;;;2.17;;
72037;SDS011;59900;50.788;12.904;2023-12-20T07:08:19;4.33;;;2.00;;
72037;SDS011;59900;50.788;12.904;2023-12-20T07:10:45;5.40;;;1.80;;
72037;SDS011;59900;50.788;12.904;2023-12-20T07:13:10;5.07;;;1.80;;
72037;SDS011;59900;50.788;12.904;2023-12-20T07:15:35;5.40;;;2.03;;
72037;SDS011;59900;50.788;12.904;2023-12-20T07:18:01;5.00;;;2.35;;
72037;SDS011;59900;50.788;12.904;2023-12-20T07:20:27;4.07;;;1.90;;
72037;SDS011;59900;50.788;12.904;2023-12-20T07:22:52;3.67;;;1.87;;
72037;SDS011;59900;50.788;12.904;2023-12-20T07:25:17;3.73;;;1.60;;
72037;SDS011;59900;50.788;12.904;2023-12-20T07:27:42;3.63;;;1.60;;
72037;SDS011;59900;50.788;12.904;2023-12-20T07:30:08;4.50;;;2.20;;
72037;SDS011;59900;50.788;12.904;2023-12-20T07:32:33;3.57;;;1.90;;
72037;SDS011;59900;50.788;12.904;2023-12-20T07:34:59;3.63;;;1.80;;
72037;SDS011;59900;50.788;12.904;2023-12-20T07:37:24;4.27;;;2.00;;
72037;SDS011;59900;50.788;12.904;2023-12-20T07:39:49;4.03;;;1.80;;
72037;SDS011;59900;50.788;12.904;2023-12-20T07:42:14;5.90;;;2.20;;
72037;SDS011;59900;50.788;12.904;2023-12-20T07:44:40;4.20;;;2.30;;
72037;SDS011;59900;50.788;12.904;2023-12-20T07:47:05;4.93;;;1.90;;
72037;SDS011;59900;50.788;12.904;2023-12-20T07:49:31;4.27;;;1.67;;
72037;SDS011;59900;50.788;12.904;2023-12-20T07:51:56;4.20;;;1.70;;
72037;SDS011;59900;50.788;12.904;2023-12-20T07:54:22;7.70;;;1.80;;
72037;SDS011;59900;50.788;12.904;2023-12-20T07:56:47;5.60;;;1.87;;
72037;SDS011;59900;50.788;12.904;2023-12-20T07:59:13;4.37;;;1.73;;
72037;SDS011;59900;50.788;12.904;2023-12-20T08:01:39;4.60;;;2.10;;
72037;SDS011;59900;50.788;12.904;2023-12-20T08:04:04;5.28;;;2.03;;
72037;SDS011;59900;50.788;12.904;2023-12-20T08:06:30;4.00;;;1.90;;
72037;SDS011;59900;50.788;12.904;2023-12-20T08:08:55;5.60;;;2.13;;
72037;SDS011;59900;50.788;12.904;2023-12-20T08:11:20;5.97;;;2.10;;
72037;SDS011;59900;50.788;12.904;2023-12-20T08:13:45;5.03;;;1.87;;
72037;SDS011;59900;50.788;12.904;2023-12-20T08:16:10;4.83;;;1.90;;
72037;SDS011;59900;50.788;12.904;2023-12-20T08:18:38;5.70;;;1.95;;
72037;SDS011;59900;50.788;12.904;2023-12-20T08:21:04;5.47;;;1.93;;
72037;SDS011;59900;50.788;12.904;2023-12-20T08:23:29;4.87;;;2.63;;
72037;SDS011;59900;50.788;12.904;2023-12-20T08:25:54;4.50;;;2.00;;
72037;SDS011;59900;50.788;12.904;2023-12-20T08:28:19;5.10;;;2.03;;
72037;SDS011;59900;50.788;12.904;2023-12-20T08:30:45;4.70;;;1.80;;
72037;SDS011;59900;50.788;12.904;2023-12-20T08:33:10;6.53;;;2.37;;
72037;SDS011;59900;50.788;12.904;2023-12-20T08:35:37;5.30;;;2.10;;
72037;SDS011;59900;50.788;12.904;2023-12-20T08:38:03;3.77;;;1.50;;
72037;SDS011;59900;50.788;12.904;2023-12-20T08:40:29;4.27;;;1.90;;
72037;SDS011;59900;50.788;12.904;2023-12-20T08:42:54;5.93;;;1.88;;
72037;SDS011;59900;50.788;12.904;2023-12-20T08:45:20;3.93;;;1.93;;
72037;SDS011;59900;50.788;12.904;2023-12-20T08:47:45;4.90;;;2.07;;
72037;SDS011;59900;50.788;12.904;2023-12-20T08:50:10;3.20;;;1.43;;
72037;SDS011;59900;50.788;12.904;2023-12-20T08:52:36;4.07;;;1.77;;
72037;SDS011;59900;50.788;12.904;2023-12-20T08:55:01;3.77;;;1.87;;
72037;SDS011;59900;50.788;12.904;2023-12-20T08:57:26;2.97;;;1.40;;
72037;SDS011;59900;50.788;12.904;2023-12-20T08:59:51;4.77;;;1.83;;
72037;SDS011;59900;50.788;12.904;2023-12-20T09:02:17;2.90;;;1.70;;
72037;SDS011;59900;50.788;12.904;2023-12-20T09:04:43;2.77;;;1.60;;
72037;SDS011;59900;50.788;12.904;2023-12-20T09:07:24;2.87;;;1.63;;
72037;SDS011;59900;50.788;12.904;2023-12-20T09:09:50;3.17;;;1.30;;
72037;SDS011;59900;50.788;12.904;2023-12-20T09:12:16;3.83;;;1.70;;
72037;SDS011;59900;50.788;12.904;2023-12-20T09:14:42;6.72;;;1.73;;
72037;SDS011;59900;50.788;12.904;2023-12-20T09:17:08;4.50;;;1.80;;
72037;SDS011;59900;50.788;12.904;2023-12-20T09:19:36;4.30;;;1.60;;
72037;SDS011;59900;50.788;12.904;2023-12-20T09:22:01;3.50;;;1.80;;
72037;SDS011;59900;50.788;12.904;2023-12-20T09:24:27;3.90;;;2.15;;
72037;SDS011;59900;50.788;12.904;2023-12-20T09:26:52;4.63;;;2.10;;
72037;SDS011;59900;50.788;12.904;2023-12-20T09:29:17;5.63;;;1.90;;
72037;SDS011;59900;50.788;12.904;2023-12-20T09:31:43;4.67;;;2.30;;
72037;SDS011;59900;50.788;12.904;2023-12-20T09:34:09;5.22;;;2.22;;
72037;SDS011;59900;50.788;12.904;2023-12-20T09:36:34;5.13;;;2.17;;
72037;SDS011;59900;50.788;12.904;2023-12-20T09:39:01;5.68;;;2.50;;
72037;SDS011;59900;50.788;12.904;2023-12-20T09:41:26;5.93;;;2.50;;
72037;SDS011;59900;50.788;12.904;2023-12-20T09:43:56;5.55;;;2.33;;
72037;SDS011;59900;50.788;12.904;2023-12-20T09:46:27;6.60;;;2.10;;
72037;SDS011;59900;50.788;12.904;2023-12-20T09:48:57;5.32;;;2.17;;
72037;SDS011;59900;50.788;12.904;2023-12-20T09:51:25;5.73;;;2.20;;
72037;SDS011;59900;50.788;12.904;2023-12-20T09:53:53;4.63;;;2.25;;
72037;SDS011;59900;50.788;12.904;2023-12-20T09:56:19;5.07;;;2.38;;
72037;SDS011;59900;50.788;12.904;2023-12-20T09:58:45;4.45;;;1.92;;
72037;SDS011;59900;50.788;12.904;2023-12-20T10:01:12;6.53;;;1.73;;
72037;SDS011;59900;50.788;12.904;2023-12-20T10:03:37;4.83;;;1.90;;
72037;SDS011;59900;50.788;12.904;2023-12-20T10:06:05;5.13;;;2.28;;
72037;SDS011;59900;50.788;12.904;2023-12-20T10:08:31;5.93;;;2.40;;
72037;SDS011;59900;50.788;12.904;2023-12-20T10:10:57;7.72;;;2.40;;
72037;SDS011;59900;50.788;12.904;2023-12-20T10:13:27;7.82;;;2.58;;
72037;SDS011;59900;50.788;12.904;2023-12-20T10:15:52;4.90;;;2.30;;
72037;SDS011;59900;50.788;12.904;2023-12-20T10:18:20;5.55;;;2.03;;
72037;SDS011;59900;50.788;12.904;2023-12-20T10:20:45;7.20;;;2.80;;
72037;SDS011;59900;50.788;12.904;2023-12-20T10:23:11;8.37;;;2.50;;
72037;SDS011;59900;50.788;12.904;2023-12-20T10:25:37;5.47;;;2.33;;
72037;SDS011;59900;50.788;12.904;2023-12-20T10:28:12;7.73;;;2.30;;
72037;SDS011;59900;50.788;12.904;2023-12-20T10:30:39;4.93;;;2.33;;
72037;SDS011;59900;50.788;12.904;2023-12-20T10:33:06;4.60;;;2.47;;
72037;SDS011;59900;50.788;12.904;2023-12-20T10:35:33;5.20;;;2.33;;
72037;SDS011;59900;50.788;12.904;2023-12-20T10:37:59;4.87;;;2.50;;
72037;SDS011;59900;50.788;12.904;2023-12-20T10:40:31;4.38;;;2.40;;
72037;SDS011;59900;50.788;12.904;2023-12-20T10:42:59;5.25;;;2.38;;
72037;SDS011;59900;50.788;12.904;2023-12-20T10:45:26;5.40;;;2.17;;
72037;SDS011;59900;50.788;12.904;2023-12-20T10:47:51;7.23;;;2.30;;
72037;SDS011;59900;50.788;12.904;2023-12-20T10:50:18;5.07;;;2.20;;
72037;SDS011;59900;50.788;12.904;2023-12-20T10:52:44;5.43;;;2.22;;
72037;SDS011;59900;50.788;12.904;2023-12-20T10:55:11;4.60;;;2.45;;
72037;SDS011;59900;50.788;12.904;2023-12-20T10:57:36;4.97;;;2.27;;
72037;SDS011;59900;50.788;12.904;2023-12-20T11:00:02;5.63;;;2.50;;
72037;SDS011;59900;50.788;12.904;2023-12-20T11:02:33;3.67;;;1.90;;
72037;SDS011;59900;50.788;12.904;2023-12-20T11:05:06;7.60;;;2.40;;
72037;SDS011;59900;50.788;12.904;2023-12-20T11:07:59;4.70;;;2.00;;
72037;SDS011;59900;50.788;12.904;2023-12-20T11:10:48;4.03;;;1.70;;
72037;SDS011;59900;50.788;12.904;2023-12-20T11:13:20;5.55;;;2.38;;
72037;SDS011;59900;50.788;12.904;2023-12-20T11:15:52;4.32;;;2.03;;
72037;SDS011;59900;50.788;12.904;2023-12-20T11:18:18;7.50;;;2.30;;
72037;SDS011;59900;50.788;12.904;2023-12-20T11:20:43;6.60;;;2.20;;
72037;SDS011;59900;50.788;12.904;2023-12-20T11:23:09;4.47;;;2.20;;
72037;SDS011;59900;50.788;12.904;2023-12-20T11:25:47;6.15;;;2.47;;
72037;SDS011;59900;50.788;12.904;2023-12-20T11:28:13;3.42;;;1.80;;
72037;SDS011;59900;50.788;12.904;2023-12-20T11:30:42;10.17;;;2.30;;
72037;SDS011;59900;50.788;12.904;2023-12-20T11:33:12;7.18;;;2.25;;
72037;SDS011;59900;50.788;12.904;2023-12-20T11:35:41;4.10;;;1.70;;
72037;SDS011;59900;50.788;12.904;2023-12-20T11:38:08;4.03;;;1.57;;
72037;SDS011;59900;50.788;12.904;2023-12-20T11:40:34;5.78;;;2.03;;
72037;SDS011;59900;50.788;12.904;2023-12-20T11:43:00;4.47;;;1.90;;
72037;SDS011;59900;50.788;12.904;2023-12-20T11:45:25;5.43;;;2.00;;
72037;SDS011;59900;50.788;12.904;2023-12-20T11:47:52;5.65;;;2.05;;
72037;SDS011;59900;50.788;12.904;2023-12-20T11:50:20;8.05;;;2.13;;
72037;SDS011;59900;50.788;12.904;2023-12-20T11:52:47;5.13;;;1.80;;
72037;SDS011;59900;50.788;12.904;2023-12-20T11:55:13;4.60;;;1.80;;
72037;SDS011;59900;50.788;12.904;2023-12-20T11:57:39;6.20;;;1.80;;
72037;SDS011;59900;50.788;12.904;2023-12-20T12:00:05;6.07;;;2.00;;
72037;SDS011;59900;50.788;12.904;2023-12-20T12:02:31;5.25;;;2.15;;
72037;SDS011;59900;50.788;12.904;2023-12-20T12:04:56;5.80;;;1.83;;
72037;SDS011;59900;50.788;12.904;2023-12-20T12:07:23;6.10;;;2.28;;
72037;SDS011;59900;50.788;12.904;2023-12-20T12:09:49;7.07;;;2.23;;
72037;SDS011;59900;50.788;12.904;2023-12-20T12:12:14;6.33;;;2.63;;
72037;SDS011;59900;50.788;12.904;2023-12-20T12:14:40;4.67;;;2.30;;
72037;SDS011;59900;50.788;12.904;2023-12-20T12:17:11;5.40;;;2.13;;
72037;SDS011;59900;50.788;12.904;2023-12-20T12:19:40;7.28;;;2.10;;
72037;SDS011;59900;50.788;12.904;2023-12-20T12:22:07;6.35;;;2.58;;
72037;SDS011;59900;50.788;12.904;2023-12-20T12:24:36;6.50;;;2.30;;
72037;SDS011;59900;50.788;12.904;2023-12-20T12:27:02;7.78;;;2.65;;
72037;SDS011;59900;50.788;12.904;2023-12-20T12:29:28;5.80;;;2.23;;
72037;SDS011;59900;50.788;12.904;2023-12-20T12:31:53;5.03;;;2.30;;
72037;SDS011;59900;50.788;12.904;2023-12-20T12:34:19;5.30;;;2.33;;
72037;SDS011;59900;50.788;12.904;2023-12-20T12:36:44;9.10;;;2.60;;
72037;SDS011;59900;50.788;12.904;2023-12-20T12:39:14;6.10;;;2.00;;
72037;SDS011;59900;50.788;12.904;2023-12-20T12:41:42;6.70;;;2.30;;
72037;SDS011;59900;50.788;12.904;2023-12-20T12:44:08;5.13;;;2.40;;
72037;SDS011;59900;50.788;12.904;2023-12-20T12:46:33;6.63;;;2.30;;
72037;SDS011;59900;50.788;12.904;2023-12-20T12:48:58;6.07;;;2.20;;
72037;SDS011;59900;50.788;12.904;2023-12-20T12:51:24;6.32;;;2.13;;
72037;SDS011;59900;50.788;12.904;2023-12-20T12:53:50;6.00;;;2.03;;
72037;SDS011;59900;50.788;12.904;2023-12-20T12:56:15;6.47;;;2.23;;
72037;SDS011;59900;50.788;12.904;2023-12-20T12:58:40;5.77;;;2.20;;
72037;SDS011;59900;50.788;12.904;2023-12-20T13:01:06;4.13;;;2.10;;
72037;SDS011;59900;50.788;12.904;2023-12-20T13:03:31;5.57;;;2.13;;
72037;SDS011;59900;50.788;12.904;2023-12-20T13:05:56;7.10;;;2.10;;
72037;SDS011;59900;50.788;12.904;2023-12-20T13:08:22;6.88;;;2.03;;
72037;SDS011;59900;50.788;12.904;2023-12-20T13:10:47;6.73;;;1.80;;
72037;SDS011;59900;50.788;12.904;2023-12-20T13:13:12;5.40;;;1.83;;
72037;SDS011;59900;50.788;12.904;2023-12-20T13:15:38;10.50;;;2.03;;
72037;SDS011;59900;50.788;12.904;2023-12-20T13:18:03;3.73;;;1.70;;
72037;SDS011;59900;50.788;12.904;2023-12-20T13:20:30;7.80;;;2.33;;
72037;SDS011;59900;50.788;12.904;2023-12-20T13:22:55;5.37;;;2.30;;
72037;SDS011;59900;50.788;12.904;2023-12-20T13:25:21;4.43;;;1.80;;
72037;SDS011;59900;50.788;12.904;2023-12-20T13:27:46;6.70;;;2.17;;
72037;SDS011;59900;50.788;12.904;2023-12-20T13:30:11;4.77;;;1.90;;
72037;SDS011;59900;50.788;12.904;2023-12-20T13:32:37;4.93;;;2.00;;
72037;SDS011;59900;50.788;12.904;2023-12-20T13:35:02;5.13;;;1.80;;
72037;SDS011;59900;50.788;12.904;2023-12-20T13:37:29;4.97;;;2.20;;
72037;SDS011;59900;50.788;12.904;2023-12-20T13:39:54;5.53;;;2.30;;
72037;SDS011;59900;50.788;12.904;2023-12-20T13:42:19;5.30;;;2.00;;
72037;SDS011;59900;50.788;12.904;2023-12-20T13:44:45;4.38;;;1.90;;
72037;SDS011;59900;50.788;12.904;2023-12-20T13:47:11;4.75;;;2.47;;
72037;SDS011;59900;50.788;12.904;2023-12-20T13:49:37;4.47;;;2.03;;
72037;SDS011;59900;50.788;12.904;2023-12-20T13:52:02;6.43;;;1.73;;
72037;SDS011;59900;50.788;12.904;2023-12-20T13:54:29;3.42;;;1.70;;
72037;SDS011;59900;50.788;12.904;2023-12-20T13:56:54;4.67;;;1.70;;
72037;SDS011;59900;50.788;12.904;2023-12-20T13:59:19;5.13;;;1.90;;
72037;SDS011;59900;50.788;12.904;2023-12-20T14:01:44;4.07;;;1.77;;
72037;SDS011;59900;50.788;12.904;2023-12-20T14:04:10;4.70;;;2.00;;
72037;SDS011;59900;50.788;12.904;2023-12-20T14:06:36;5.90;;;1.90;;
72037;SDS011;59900;50.788;12.904;2023-12-20T14:09:01;3.83;;;1.90;;
72037;SDS011;59900;50.788;12.904;2023-12-20T14:11:27;3.60;;;1.63;;
72037;SDS011;59900;50.788;12.904;2023-12-20T14:13:53;4.37;;;1.93;;
72037;SDS011;59900;50.788;12.904;2023-12-20T14:16:22;3.83;;;1.80;;
72037;SDS011;59900;50.788;12.904;2023-12-20T14:18:48;4.57;;;2.13;;
72037;SDS011;59900;50.788;12.904;2023-12-20T14:21:13;4.20;;;1.70;;
72037;SDS011;59900;50.788;12.904;2023-12-20T14:23:39;3.57;;;2.00;;
72037;SDS011;59900;50.788;12.904;2023-12-20T14:26:04;4.07;;;1.90;;